Time;durP1;ratioP1;P1;durP2;ratioP2;P2;SDS_P1;SDS_P2;PMS_P1;PMS_P2;Temp;Humidity;BMP_temperature;BMP_pressure;BME280_temperature;BME280_humidity;BME280_pressure;Samples;Min_cycle;Max_cycle;Signal;HPM_P1;HPM_P2
2021/11/08 00:01:24;;;;;;;636.50;89.50;;;;;15.60;100686.00;;;;5049790;28;20076;-74
2021/11/08 00:03:53;;;;;;;718.53;164.55;;;;;15.50;100670.00;;;;5069717;28;20056;-73
2021/11/08 00:06:23;;;;;;;500.65;108.03;;;;;15.30;100681.00;;;;5069698;28;20079;-73
2021/11/08 00:08:53;;;;;;;54.22;4.78;;;;;15.40;100664.00;;;;5069826;28;20045;-73
2021/11/08 00:11:25;;;;;;;1614.70;149.30;;;;;15.20;100674.00;;;;5069452;28;20500;-72
2021/11/08 00:13:55;;;;;;;370.38;44.53;;;;;15.20;100667.00;;;;5069124;28;20060;-74
2021/11/08 00:16:41;;;;;;;;;;;;;;;;;;;;;
2021/11/08 00:19:17;;;;;;;336.58;74.78;;;;;15.20;100685.00;;;;5069183;28;20047;-73
2021/11/08 00:21:48;;;;;;;648.72;29.63;;;;;15.10;100659.00;;;;5069266;28;20888;-73
2021/11/08 00:24:23;;;;;;;52.30;6.40;;;;;15.00;100679.00;;;;5069223;28;20381;-73
2021/11/08 00:26:54;;;;;;;509.77;45.03;;;;;15.00;100667.00;;;;5051433;28;20507;-73
2021/11/08 00:29:24;;;;;;;957.05;120.10;;;;;15.00;100684.00;;;;5069325;28;20054;-73
2021/11/08 00:31:54;;;;;;;1400.72;251.85;;;;;15.00;100673.00;;;;5069053;28;20590;-74
2021/11/08 00:34:24;;;;;;;1094.43;189.13;;;;;14.90;100671.00;;;;5068382;28;20106;-74
2021/11/08 00:36:54;;;;;;;1215.10;172.35;;;;;15.00;100669.00;;;;5068977;28;20057;-73
2021/11/08 00:39:25;;;;;;;694.75;71.22;;;;;15.00;100674.00;;;;5069340;28;20408;-74
2021/11/08 00:41:57;;;;;;;1999.90;421.52;;;;;15.00;100662.00;;;;5068792;28;20050;-74
2021/11/08 00:44:27;;;;;;;1922.65;387.27;;;;;14.90;100683.00;;;;5068572;28;20084;-74
2021/11/08 00:46:57;;;;;;;1578.78;221.23;;;;;14.90;100677.00;;;;5068331;28;20052;-73
2021/11/08 00:49:27;;;;;;;298.38;27.60;;;;;15.00;100680.00;;;;5068958;28;20090;-73
2021/11/08 00:51:58;;;;;;;557.13;72.53;;;;;15.00;100667.00;;;;5068423;28;20064;-73
2021/11/08 00:54:29;;;;;;;186.75;27.00;;;;;14.80;100662.00;;;;5067424;28;20072;-73
2021/11/08 00:57:00;;;;;;;85.28;10.55;;;;;14.80;100681.00;;;;5067562;28;20044;-74
2021/11/08 00:59:30;;;;;;;1464.15;141.93;;;;;14.80;100655.00;;;;5066245;28;20047;-73
2021/11/08 01:02:02;;;;;;;1031.65;170.38;;;;;14.70;100679.00;;;;5067510;28;20134;-74
2021/11/08 01:04:31;;;;;;;853.17;157.38;;;;;14.80;100685.00;;;;5068288;28;20072;-73
2021/11/08 01:07:02;;;;;;;1195.05;283.80;;;;;14.70;100680.00;;;;5068805;28;20554;-74
2021/11/08 01:09:32;;;;;;;1999.90;241.67;;;;;14.70;100667.00;;;;5068098;28;20549;-73
2021/11/08 01:12:06;;;;;;;579.67;57.38;;;;;14.60;100672.00;;;;5066623;28;20048;-74
2021/11/08 01:14:35;;;;;;;1999.90;262.30;;;;;14.50;100668.00;;;;5067120;28;20511;-74
2021/11/08 01:17:08;;;;;;;488.02;76.68;;;;;14.40;100680.00;;;;5067369;28;20041;-74
2021/11/08 01:19:38;;;;;;;1999.90;407.60;;;;;14.30;100681.00;;;;5067634;28;20125;-74
2021/11/08 01:22:16;;;;;;;1999.90;300.42;;;;;14.30;100679.00;;;;5049830;28;20060;-74
2021/11/08 01:24:55;;;;;;;1377.20;154.25;;;;;14.20;100673.00;;;;5066857;28;20048;-74
2021/11/08 01:27:36;;;;;;;712.47;41.10;;;;;14.60;100650.00;;;;5067929;28;20419;-73
2021/11/08 01:30:12;;;;;;;213.70;12.68;;;;;14.70;100649.00;;;;5067733;28;20033;-74
2021/11/08 01:32:53;;;;;;;1999.90;629.72;;;;;14.70;100649.00;;;;5067995;28;20079;-74
2021/11/08 01:35:37;;;;;;;175.60;13.18;;;;;14.80;100645.00;;;;5067766;28;20041;-74
2021/11/08 01:38:11;;;;;;;391.95;62.85;;;;;14.80;100668.00;;;;5067471;28;20048;-74
2021/11/08 01:40:43;;;;;;;626.42;69.45;;;;;14.80;100659.00;;;;5067670;28;20082;-74
2021/11/08 01:43:13;;;;;;;664.92;94.25;;;;;14.80;100655.00;;;;5067320;28;20511;-74
2021/11/08 01:45:44;;;;;;;1999.90;267.80;;;;;14.90;100644.00;;;;5067353;28;20119;-73
2021/11/08 01:48:14;;;;;;;850.03;57.95;;;;;15.00;100641.00;;;;5067671;28;20044;-73
2021/11/08 01:50:44;;;;;;;1156.95;220.77;;;;;15.10;100642.00;;;;5067868;28;20068;-73
2021/11/08 01:53:15;;;;;;;1020.03;159.23;;;;;15.10;100659.00;;;;5067730;28;20032;-73
2021/11/08 01:55:44;;;;;;;1291.47;183.07;;;;;15.10;100657.00;;;;5067759;28;20072;-73
2021/11/08 01:58:14;;;;;;;1263.07;276.10;;;;;15.10;100654.00;;;;5067838;28;20064;-73
2021/11/08 02:00:44;;;;;;;1538.65;97.40;;;;;15.10;100637.00;;;;5066968;28;20081;-73
2021/11/08 02:03:16;;;;;;;1696.45;697.55;;;;;15.00;100629.00;;;;5067742;28;20068;-73
2021/11/08 02:05:47;;;;;;;372.48;39.25;;;;;15.10;100647.00;;;;5068059;28;20045;-73
2021/11/08 02:08:18;;;;;;;1454.82;180.38;;;;;15.10;100651.00;;;;5066782;28;20072;-73
2021/11/08 02:10:48;;;;;;;;;;;;;15.10;100650.00;;;;5068279;28;20414;-74
2021/11/08 02:13:19;;;;;;;24.92;3.88;;;;;15.00;100656.00;;;;5067514;28;20019;-73
2021/11/08 02:15:49;;;;;;;1075.13;277.67;;;;;15.00;100652.00;;;;5067382;28;20580;-74
2021/11/08 02:18:21;;;;;;;1329.80;322.02;;;;;15.10;100652.00;;;;5066880;28;20049;-73
2021/11/08 02:20:54;;;;;;;1141.93;96.38;;;;;15.10;100661.00;;;;5067143;28;20045;-74
2021/11/08 02:23:25;;;;;;;504.52;73.40;;;;;15.00;100653.00;;;;5067202;28;20032;-73
2021/11/08 02:26:00;;;;;;;1999.90;225.38;;;;;15.00;100642.00;;;;5067470;28;20058;-73
2021/11/08 02:28:30;;;;;;;1999.90;268.55;;;;;14.90;100655.00;;;;5066036;28;20408;-73
2021/11/08 02:31:01;;;;;;;130.45;36.38;;;;;14.90;100628.00;;;;5066215;28;20109;-73
2021/11/08 02:33:30;;;;;;;1752.90;188.10;;;;;15.00;100650.00;;;;5067085;28;20075;-74
2021/11/08 02:36:00;;;;;;;90.13;18.60;;;;;15.00;100627.00;;;;5048498;28;20480;-73
2021/11/08 02:38:31;;;;;;;1999.90;329.27;;;;;15.00;100645.00;;;;5066982;28;20044;-74
2021/11/08 02:41:00;;;;;;;1671.57;248.07;;;;;15.00;100654.00;;;;5067164;28;20072;-74
2021/11/08 02:43:30;;;;;;;1474.13;212.85;;;;;15.00;100650.00;;;;5066838;28;20048;-74
2021/11/08 02:48:33;;;;;;;1885.88;797.92;;;;;15.00;100650.00;;;;5067397;28;20056;-74
2021/11/08 02:51:11;;;;;;;1389.97;240.20;;;;;15.00;100647.00;;;;5067233;28;20053;-74
2021/11/08 02:53:43;;;;;;;1082.72;240.63;;;;;14.90;100653.00;;;;5066810;28;20537;-74
2021/11/08 02:56:15;;;;;;;752.17;70.22;;;;;14.90;100636.00;;;;5066148;28;20044;-74
2021/11/08 02:58:46;;;;;;;1999.90;210.63;;;;;14.80;100642.00;;;;5066595;28;21147;-74
2021/11/08 03:01:20;;;;;;;967.38;99.82;;;;;14.80;100640.00;;;;5066405;28;20556;-74
2021/11/08 03:03:58;;;;;;;134.45;13.00;;;;;14.70;100624.00;;;;5067022;28;20044;-74
2021/11/08 03:09:13;;;;;;;560.33;114.65;;;;;14.60;100643.00;;;;5066498;28;20052;-74
2021/11/08 03:11:45;;;;;;;726.67;67.82;;;;;14.60;100623.00;;;;5066646;28;20036;-74
2021/11/08 03:14:17;;;;;;;1836.72;196.52;;;;;14.50;100642.00;;;;5066406;28;20041;-74
2021/11/08 03:19:33;;;;;;;1999.90;482.48;;;;;14.60;100646.00;;;;5066700;28;20036;-74
2021/11/08 03:22:11;;;;;;;1599.43;150.07;;;;;14.50;100633.00;;;;5066280;28;20499;-74
2021/11/08 03:29:54;;;;;;;1999.90;387.23;;;;;14.40;100611.00;;;;5066740;28;20060;-74
2021/11/08 03:32:25;;;;;;;1999.90;999.90;;;;;14.30;100635.00;;;;5066399;28;20041;-74
2021/11/08 03:35:02;;;;;;;1589.50;391.00;;;;;14.20;100617.00;;;;5066296;28;20076;-74
2021/11/08 03:37:37;;;;;;;1236.20;262.92;;;;;14.10;100623.00;;;;5070135;28;20088;-74
2021/11/08 03:40:10;;;;;;;645.60;204.48;;;;;14.00;100612.00;;;;5069977;28;20055;-74
2021/11/08 03:42:41;;;;;;;1827.22;642.67;;;;;13.90;100607.00;;;;5070899;28;20078;-74
2021/11/08 03:45:10;;;;;;;23.23;4.15;;;;;13.80;100624.00;;;;5069812;28;20067;-74
2021/11/08 03:47:40;;;;;;;742.35;82.25;;;;;13.70;100600.00;;;;5070271;28;20072;-74
2021/11/08 03:50:11;;;;;;;1077.68;304.00;;;;;13.70;100624.00;;;;5069914;28;20580;-74
2021/11/08 03:52:41;;;;;;;392.10;80.30;;;;;13.70;100627.00;;;;5051649;28;20060;-74
2021/11/08 03:55:13;;;;;;;1006.88;144.45;;;;;13.60;100617.00;;;;5069860;28;20048;-74
2021/11/08 03:57:44;;;;;;;1634.70;441.77;;;;;13.50;100619.00;;;;5069939;28;20166;-74
2021/11/08 04:00:15;;;;;;;1549.18;259.13;;;;;13.40;100616.00;;;;5069456;28;20128;-74
2021/11/08 04:02:47;;;;;;;548.83;201.20;;;;;13.40;100617.00;;;;5069109;28;20036;-74
2021/11/08 04:05:19;;;;;;;1048.05;250.05;;;;;13.30;100593.00;;;;5069469;28;20090;-74
2021/11/08 04:07:50;;;;;;;554.08;152.07;;;;;13.20;100601.00;;;;5069536;28;20045;-74
2021/11/08 04:10:22;;;;;;;291.77;14.20;;;;;13.20;100602.00;;;;5070225;28;20049;-74
2021/11/08 04:12:54;;;;;;;345.52;22.02;;;;;13.10;100596.00;;;;5069743;28;20530;-74
2021/11/08 04:15:30;;;;;;;1514.10;419.08;;;;;13.10;100596.00;;;;5068854;28;20376;-74
2021/11/08 04:18:01;;;;;;;1620.90;760.72;;;;;13.10;100599.00;;;;5070012;28;20119;-74
2021/11/08 04:20:30;;;;;;;723.20;64.53;;;;;13.10;100578.00;;;;5069333;28;20480;-74
2021/11/08 04:23:00;;;;;;;190.98;11.75;;;;;13.10;100583.00;;;;5069641;28;20036;-74
2021/11/08 04:25:30;;;;;;;26.48;3.85;;;;;13.10;100588.00;;;;5069511;28;20044;-74
2021/11/08 04:28:00;;;;;;;97.27;6.43;;;;;13.10;100588.00;;;;5069146;28;20490;-74
2021/11/08 04:30:31;;;;;;;1999.90;239.18;;;;;13.00;100577.00;;;;5069760;28;20041;-74
2021/11/08 04:33:15;;;;;;;454.95;39.13;;;;;13.00;100571.00;;;;5069990;28;20040;-74
2021/11/08 04:35:55;;;;;;;425.25;30.38;;;;;12.90;100573.00;;;;5069258;28;20608;-74
2021/11/08 04:49:16;;;;;;;1852.03;362.25;;;;;12.70;100554.00;;;;5050999;28;20051;-74
2021/11/08 05:27:51;;;;;;;981.58;501.98;;;;;12.50;100532.00;;;;5025778;28;20050;-73
2021/11/08 05:28:31;;;;;;;1427.13;243.93;;;;;12.50;100520.00;;;;5026152;28;20590;-74
2021/11/08 05:31:01;;;;;;;1414.40;558.65;;;;;12.50;100503.00;;;;5057498;28;20053;-74
2021/11/08 05:33:30;;;;;;;440.65;18.92;;;;;12.50;100522.00;;;;5067657;28;20036;-74
2021/11/08 05:36:01;;;;;;;398.45;71.78;;;;;12.50;100507.00;;;;5067695;28;20036;-74
2021/11/08 05:38:31;;;;;;;1406.22;180.45;;;;;12.50;100513.00;;;;5067291;28;20040;-74
2021/11/08 05:41:00;;;;;;;213.38;19.27;;;;;12.40;100527.00;;;;5049778;28;20129;-74
2021/11/08 05:43:30;;;;;;;261.48;88.60;;;;;12.40;100538.00;;;;5067921;28;20094;-74
2021/11/08 05:46:00;;;;;;;28.02;4.15;;;;;12.40;100521.00;;;;5067482;28;20458;-74
2021/11/08 05:48:29;;;;;;;1718.72;337.55;;;;;12.40;100522.00;;;;5067521;28;20058;-74
2021/11/08 05:50:59;;;;;;;980.42;341.10;;;;;12.30;100527.00;;;;5067681;28;20577;-74
2021/11/08 05:53:28;;;;;;;1999.90;999.90;;;;;12.30;100523.00;;;;5067747;28;20076;-74
2021/11/08 06:51:50;;;;;;;39.75;5.88;;;;;12.00;100531.00;;;;5066391;28;20044;-74
2021/11/08 06:54:22;;;;;;;703.85;180.82;;;;;12.00;100532.00;;;;5066757;28;20060;-74
2021/11/08 06:56:55;;;;;;;891.63;213.50;;;;;12.00;100515.00;;;;5066614;28;20532;-74
2021/11/08 06:59:27;;;;;;;1834.07;478.63;;;;;12.00;100532.00;;;;5066211;28;20074;-74
2021/11/08 07:02:02;;;;;;;378.38;100.00;;;;;11.90;100531.00;;;;5066339;28;20040;-74
2021/11/08 07:04:31;;;;;;;24.95;4.10;;;;;11.90;100533.00;;;;5066369;28;20045;-74
2021/11/08 07:07:03;;;;;;;19.13;3.70;;;;;11.90;100517.00;;;;5066418;28;20067;-74
2021/11/08 07:09:34;;;;;;;624.72;351.33;;;;;11.90;100529.00;;;;5067065;28;20048;-74
2021/11/08 07:12:05;;;;;;;;;;;;;11.90;100547.00;;;;5053668;28;20049;-74
2021/11/08 07:14:35;;;;;;;235.75;68.10;;;;;12.00;100560.00;;;;5070560;28;19924;-74
2021/11/08 07:17:05;;;;;;;1136.57;150.60;;;;;12.00;100551.00;;;;5070824;28;20114;-74
2021/11/08 07:19:35;;;;;;;1167.05;64.63;;;;;12.00;100551.00;;;;5070348;28;20041;-74
2021/11/08 07:22:05;;;;;;;200.30;44.28;;;;;12.00;100551.00;;;;5070202;28;20087;-74
2021/11/08 07:24:35;;;;;;;24.10;2.95;;;;;12.00;100558.00;;;;5070251;28;20106;-74
2021/11/08 07:27:05;;;;;;;17.08;3.15;;;;;12.00;100548.00;;;;5070912;28;20756;-74
2021/11/08 07:29:37;;;;;;;27.35;3.45;;;;;12.00;100564.00;;;;5070093;28;20044;-74
2021/11/08 07:32:08;;;;;;;79.70;24.02;;;;;12.00;100544.00;;;;5069981;28;20043;-74
2021/11/08 07:34:38;;;;;;;24.20;3.72;;;;;12.00;100545.00;;;;5070360;28;20064;-74
2021/11/08 07:37:07;;;;;;;25.65;4.30;;;;;12.00;100556.00;;;;5069735;28;20136;-74
2021/11/08 07:39:37;;;;;;;34.58;4.68;;;;;12.00;100555.00;;;;5053023;28;20041;-74
2021/11/08 07:42:06;;;;;;;32.03;3.67;;;;;12.00;100573.00;;;;5070216;28;20044;-73
2021/11/08 07:44:36;;;;;;;31.25;3.80;;;;;12.00;100563.00;;;;5069630;28;20479;-74
2021/11/08 07:47:06;;;;;;;23.95;4.03;;;;;11.90;100564.00;;;;5069919;28;20457;-74
2021/11/08 07:49:39;;;;;;;1999.90;999.90;;;;;11.90;100568.00;;;;5070187;28;20507;-74
2021/11/08 07:52:10;;;;;;;206.70;56.63;;;;;11.80;100589.00;;;;5069693;28;20506;-74
2021/11/08 07:54:40;;;;;;;22.27;3.60;;;;;11.80;100573.00;;;;5069849;28;20040;-74
2021/11/08 07:57:10;;;;;;;21.92;3.80;;;;;11.70;100579.00;;;;5069231;28;20572;-74
2021/11/08 07:59:39;;;;;;;23.38;3.47;;;;;11.70;100577.00;;;;5069560;28;20487;-73
2021/11/08 08:02:09;;;;;;;24.00;3.63;;;;;11.70;100595.00;;;;5069580;28;20051;-74
2021/11/08 08:04:39;;;;;;;24.35;3.80;;;;;11.80;100595.00;;;;5051483;28;20063;-73
2021/11/08 08:07:09;;;;;;;27.00;3.47;;;;;11.70;100609.00;;;;5069652;28;20049;-74
2021/11/08 08:09:38;;;;;;;22.92;3.33;;;;;11.70;100610.00;;;;5069439;28;20132;-73
2021/11/08 08:12:09;;;;;;;24.50;3.78;;;;;11.80;100605.00;;;;5069902;28;20144;-74
2021/11/08 08:14:38;;;;;;;19.50;3.38;;;;;11.80;100609.00;;;;5069705;28;20369;-73
2021/11/08 08:17:08;;;;;;;24.55;2.90;;;;;11.70;100623.00;;;;5068884;28;20518;-74
2021/11/08 08:19:37;;;;;;;25.98;3.58;;;;;11.70;100624.00;;;;5069260;28;20511;-73
2021/11/08 08:22:08;;;;;;;19.92;3.20;;;;;11.70;100640.00;;;;5050747;28;20106;-73
2021/11/08 08:24:38;;;;;;;22.83;3.20;;;;;11.70;100616.00;;;;5069249;28;20036;-74
2021/11/08 08:27:08;;;;;;;21.92;3.20;;;;;11.60;100619.00;;;;5069451;28;20123;-74
2021/11/08 08:29:37;;;;;;;24.30;3.80;;;;;11.60;100645.00;;;;5069703;28;20072;-74
2021/11/08 08:32:10;;;;;;;22.42;3.20;;;;;11.60;100637.00;;;;5068845;28;20096;-74
2021/11/08 08:34:49;;;;;;;22.20;3.42;;;;;11.60;100655.00;;;;5052724;28;20567;-74
2021/11/08 08:37:20;;;;;;;23.92;3.40;;;;;11.70;100634.00;;;;5068865;28;20067;-74
2021/11/08 08:39:51;;;;;;;15.32;2.50;;;;;11.70;100659.00;;;;5068518;28;20131;-74
2021/11/08 08:42:22;;;;;;;25.40;3.58;;;;;11.80;100659.00;;;;5069285;28;20069;-73
2021/11/08 08:44:52;;;;;;;23.77;3.38;;;;;11.80;100649.00;;;;5068512;28;20045;-74
2021/11/08 08:47:22;;;;;;;21.17;3.17;;;;;11.80;100662.00;;;;5068922;28;20044;-73
2021/11/08 08:49:52;;;;;;;27.63;3.33;;;;;11.80;100660.00;;;;5068807;28;20415;-74
2021/11/08 08:52:27;;;;;;;32.40;3.22;;;;;11.90;100665.00;;;;5069015;28;20761;-74
2021/11/08 08:54:57;;;;;;;15.90;2.80;;;;;11.90;100650.00;;;;5069029;28;20064;-73
2021/11/08 08:57:27;;;;;;;22.50;3.30;;;;;12.00;100645.00;;;;5069109;28;20040;-73
2021/11/08 09:00:03;;;;;;;31.90;3.78;;;;;12.10;100664.00;;;;5068702;28;20428;-73
2021/11/08 09:02:54;;;;;;;24.65;4.07;;;;;12.10;100670.00;;;;5068326;28;20124;-74
2021/11/08 09:05:25;;;;;;;25.08;3.60;;;;;12.20;100678.00;;;;5068290;28;20485;-74
2021/11/08 09:07:56;;;;;;;34.05;3.63;;;;;12.30;100674.00;;;;5068242;28;20049;-74
2021/11/08 09:10:29;;;;;;;26.05;3.60;;;;;12.50;100666.00;;;;5068232;28;20044;-74
2021/11/08 09:13:00;;;;;;;26.55;3.85;;;;;12.60;100666.00;;;;5068516;28;20470;-73
2021/11/08 09:15:30;;;;;;;27.05;3.63;;;;;12.60;100669.00;;;;5067980;28;20151;-74
2021/11/08 09:18:03;;;;;;;27.90;3.33;;;;;12.70;100650.00;;;;5068845;28;20082;-73
2021/11/08 09:20:35;;;;;;;25.88;3.60;;;;;12.80;100650.00;;;;5068013;28;20438;-74
2021/11/08 09:23:07;;;;;;;26.08;3.65;;;;;12.90;100651.00;;;;5069071;28;20048;-74
2021/11/08 09:25:36;;;;;;;31.73;3.42;;;;;13.00;100660.00;;;;5068374;28;20111;-73
2021/11/08 09:28:07;;;;;;;21.83;4.00;;;;;13.20;100665.00;;;;5067390;28;20106;-74
2021/11/08 09:30:41;;;;;;;27.80;4.03;;;;;13.30;100657.00;;;;5068808;28;20056;-74
2021/11/08 09:33:12;;;;;;;23.58;3.97;;;;;13.40;100677.00;;;;5067910;28;20113;-73
2021/11/08 09:35:49;;;;;;;22.05;2.97;;;;;13.50;100663.00;;;;5068192;28;20068;-74
2021/11/08 09:38:20;;;;;;;27.50;3.72;;;;;13.60;100669.00;;;;5067863;28;20040;-74
2021/11/08 09:40:50;;;;;;;32.45;6.25;;;;;14.00;100651.00;;;;5067579;28;20178;-73
2021/11/08 09:43:23;;;;;;;28.08;4.18;;;;;14.20;100678.00;;;;5067958;28;20064;-74
2021/11/08 09:45:53;;;;;;;21.27;3.78;;;;;14.40;100659.00;;;;5067312;28;20507;-72
2021/11/08 09:48:24;;;;;;;24.55;3.88;;;;;14.70;100667.00;;;;5067437;28;20514;-73
2021/11/08 09:50:54;;;;;;;34.20;5.43;;;;;15.30;100646.00;;;;5067701;28;20495;-74
2021/11/08 09:53:23;;;;;;;20.17;3.40;;;;;15.20;100654.00;;;;5067714;28;20032;-75
2021/11/08 09:55:53;;;;;;;33.15;4.20;;;;;15.10;100664.00;;;;5067206;28;20106;-72
2021/11/08 09:58:22;;;;;;;23.08;5.05;;;;;15.30;100662.00;;;;5067298;28;20127;-72
2021/11/08 10:00:59;;;;;;;23.77;3.97;;;;;15.80;100640.00;;;;5067067;28;20404;-73
2021/11/08 10:03:32;;;;;;;16.35;4.05;;;;;19.10;100515.00;;;;5067418;28;20143;-73
2021/11/08 10:06:03;;;;;;;21.80;3.17;;;;;22.00;100437.00;;;;5067444;28;20411;-73
2021/11/08 10:08:37;;;;;;;1999.90;156.88;;;;;23.80;100419.00;;;;5049497;28;20048;-73
2021/11/08 10:11:11;;;;;;;528.40;113.75;;;;;23.80;100407.00;;;;5067036;28;20056;-74
2021/11/08 10:13:43;;;;;;;57.38;13.02;;;;;24.10;100398.00;;;;5066945;28;20575;-74
2021/11/08 10:16:16;;;;;;;23.73;3.17;;;;;24.70;100385.00;;;;5066476;28;20102;-73
2021/11/08 10:18:50;;;;;;;14.57;3.47;;;;;24.60;100398.00;;;;5066438;28;20090;-75
2021/11/08 10:21:32;;;;;;;15.68;2.83;;;;;25.10;100381.00;;;;5066047;28;20052;-75
2021/11/08 10:24:10;;;;;;;24.55;3.60;;;;;25.60;100396.00;;;;5065887;28;20037;-74
2021/11/08 10:26:40;;;;;;;34.78;4.72;;;;;24.90;100406.00;;;;5067102;28;20503;-74
2021/11/08 10:29:17;;;;;;;18.60;3.33;;;;;25.80;100421.00;;;;5066894;28;20037;-75
2021/11/08 10:32:08;;;;;;;735.45;88.30;;;;;25.20;100460.00;;;;5066814;28;20040;-74
2021/11/08 10:34:52;;;;;;;32.10;3.70;;;;;24.60;100476.00;;;;5066705;28;20590;-73
2021/11/08 10:37:26;;;;;;;11.00;2.28;;;;;24.00;100474.00;;;;5067265;28;20086;-74
2021/11/08 10:39:58;;;;;;;18.90;3.08;;;;;24.60;100466.00;;;;5066367;28;20044;-74
2021/11/08 10:42:34;;;;;;;31.38;4.63;;;;;25.90;100414.00;;;;5067167;28;20074;-75
2021/11/08 10:45:05;;;;;;;13.73;3.03;;;;;25.90;100417.00;;;;5066327;28;20063;-74
2021/11/08 10:47:36;;;;;;;13.63;3.03;;;;;26.50;100415.00;;;;5049373;28;20094;-74
2021/11/08 10:50:15;;;;;;;18.65;4.30;;;;;27.20;100416.00;;;;5066646;28;20524;-75
2021/11/08 10:52:44;;;;;;;29.05;3.80;;;;;26.70;100433.00;;;;5066509;28;20041;-73
2021/11/08 10:55:14;;;;;;;10.95;2.88;;;;;26.20;100422.00;;;;5066706;28;20056;-74
2021/11/08 10:57:43;;;;;;;14.48;3.40;;;;;26.50;100456.00;;;;5066108;28;20079;-74
2021/11/08 11:00:14;;;;;;;14.65;2.95;;;;;26.50;100471.00;;;;5066762;28;20123;-74
2021/11/08 11:02:43;;;;;;;13.38;3.13;;;;;27.20;100482.00;;;;5067235;28;20068;-74
2021/11/08 11:05:16;;;;;;;13.88;3.17;;;;;26.90;100471.00;;;;5066835;28;20130;-74
2021/11/08 11:07:46;;;;;;;17.90;3.45;;;;;28.00;100478.00;;;;5067007;28;20410;-75
2021/11/08 11:10:21;;;;;;;11.02;2.85;;;;;29.10;100476.00;;;;5066914;28;20059;-74
2021/11/08 11:12:52;;;;;;;15.23;3.17;;;;;27.80;100440.00;;;;5066443;28;20411;-75
2021/11/08 11:15:32;;;;;;;11.95;3.45;;;;;26.90;100430.00;;;;5066159;28;20123;-74
2021/11/08 11:18:03;;;;;;;15.35;3.17;;;;;26.70;100440.00;;;;5066517;28;20048;-73
2021/11/08 11:20:37;;;;;;;20.45;4.15;;;;;26.30;100427.00;;;;5066362;28;20045;-74
2021/11/08 11:23:14;;;;;;;17.13;3.33;;;;;26.00;100418.00;;;;5066528;28;20086;-73
2021/11/08 11:25:53;;;;;;;18.50;4.13;;;;;26.20;100408.00;;;;5066453;28;20052;-74
2021/11/08 11:28:34;;;;;;;25.73;6.63;;;;;25.90;100420.00;;;;5066211;28;20045;-74
2021/11/08 11:31:19;;;;;;;17.38;3.83;;;;;25.10;100414.00;;;;5066644;28;20051;-74
2021/11/08 11:33:54;;;;;;;19.63;3.70;;;;;24.30;100429.00;;;;5048950;28;20140;-74
2021/11/08 11:36:26;;;;;;;46.53;7.55;;;;;24.20;100430.00;;;;5046403;28;20057;-74
2021/11/08 11:39:03;;;;;;;15.18;4.07;;;;;24.50;100569.00;;;;5066374;28;20913;-75
2021/11/08 11:41:36;;;;;;;18.35;4.05;;;;;23.20;100662.00;;;;5066539;28;20460;-74
2021/11/08 11:44:10;;;;;;;17.17;3.45;;;;;23.20;100591.00;;;;5066497;28;20059;-75
2021/11/08 11:46:49;;;;;;;10.93;3.00;;;;;24.70;100574.00;;;;5066342;28;20068;-75
2021/11/08 11:49:20;;;;;;;15.27;3.15;;;;;24.50;100586.00;;;;5048713;28;20102;-75
2021/11/08 11:51:54;;;;;;;16.38;3.83;;;;;24.00;100600.00;;;;5066038;28;20053;-74
2021/11/08 11:54:29;;;;;;;15.93;3.75;;;;;23.10;100571.00;;;;5066392;28;20507;-75
2021/11/08 11:57:00;;;;;;;10.77;3.13;;;;;23.40;100566.00;;;;5067350;28;20048;-73
2021/11/08 11:59:31;;;;;;;14.82;3.35;;;;;22.40;100556.00;;;;5070148;28;20040;-76
2021/11/08 12:02:02;;;;;;;13.93;3.45;;;;;22.30;100620.00;;;;5069440;28;20160;-74
2021/11/08 12:04:31;;;;;;;16.15;3.70;;;;;21.60;100670.00;;;;5069999;28;20090;-74
2021/11/08 12:07:04;;;;;;;14.75;3.70;;;;;21.60;100591.00;;;;5069203;28;20040;-73
2021/11/08 12:09:36;;;;;;;12.20;3.78;;;;;22.50;100571.00;;;;5069054;28;20040;-74
2021/11/08 12:12:07;;;;;;;14.40;3.70;;;;;22.80;100701.00;;;;5068687;28;20060;-74
2021/11/08 12:14:38;;;;;;;21.65;3.97;;;;;23.30;100566.00;;;;5069287;28;20049;-74
2021/11/08 12:17:19;;;;;;;16.23;3.70;;;;;24.80;100569.00;;;;5069810;28;20661;-74
2021/11/08 12:19:51;;;;;;;14.93;3.72;;;;;25.20;100590.00;;;;5069841;28;20032;-74
2021/11/08 12:22:23;;;;;;;14.02;3.20;;;;;24.00;100573.00;;;;5069205;28;20444;-75
2021/11/08 12:25:07;;;;;;;16.73;3.40;;;;;25.40;100587.00;;;;5069608;28;20515;-74
2021/11/08 12:27:42;;;;;;;12.90;3.42;;;;;24.00;100686.00;;;;5069790;28;20046;-75
2021/11/08 12:30:21;;;;;;;14.00;3.42;;;;;22.40;100638.00;;;;5069553;28;20050;-74
2021/11/08 12:32:56;;;;;;;14.80;3.28;;;;;23.20;100595.00;;;;5069487;28;20127;-74
2021/11/08 12:35:41;;;;;;;11.95;3.35;;;;;24.10;100600.00;;;;5068595;28;20036;-75
2021/11/08 12:38:37;;;;;;;16.65;3.55;;;;;24.60;100607.00;;;;5068963;28;20102;-75
2021/11/08 12:41:11;;;;;;;18.27;3.22;;;;;25.10;100566.00;;;;5069052;28;20291;-75
2021/11/08 12:43:58;;;;;;;16.85;3.78;;;;;24.30;100666.00;;;;5068795;28;20082;-74
2021/11/08 12:46:38;;;;;;;13.50;3.08;;;;;24.40;100593.00;;;;5052489;28;20570;-74
2021/11/08 12:49:13;;;;;;;15.13;3.70;;;;;24.10;100610.00;;;;5068760;28;20079;-75
2021/11/08 12:51:55;;;;;;;16.38;4.00;;;;;25.00;100573.00;;;;5068806;28;20048;-74
2021/11/08 12:54:27;;;;;;;12.40;3.30;;;;;25.50;100601.00;;;;5051920;28;20036;-74
2021/11/08 12:57:09;;;;;;;14.30;3.47;;;;;25.20;100583.00;;;;5050489;28;20053;-75
2021/11/08 13:00:16;;;;;;;14.07;3.85;;;;;25.50;100596.00;;;;5050594;28;20047;-75
2021/11/08 13:02:57;;;;;;;11.60;3.30;;;;;26.30;100605.00;;;;5068408;28;20478;-75
2021/11/08 13:05:37;;;;;;;11.35;3.17;;;;;25.50;100604.00;;;;5068808;28;20086;-74
2021/11/08 13:08:20;;;;;;;;;;;;;26.10;100615.00;;;;5068630;28;20098;-76
2021/11/08 13:11:16;;;;;;;19.42;3.47;;;;;26.10;100612.00;;;;5050413;28;19924;-76
2021/11/08 13:14:01;;;;;;;13.13;3.35;;;;;25.80;100611.00;;;;5066003;28;20059;-75
2021/11/08 13:16:41;;;;;;;18.08;3.38;;;;;25.20;100636.00;;;;5068447;28;20503;-76
2021/11/08 13:19:16;;;;;;;15.38;3.83;;;;;25.20;100625.00;;;;5068657;28;20068;-75
2021/11/08 13:21:46;;;;;;;18.50;3.33;;;;;25.20;100602.00;;;;5068080;28;20522;-74
2021/11/08 13:24:16;;;;;;;12.35;3.38;;;;;25.00;100614.00;;;;5068346;28;20064;-75
2021/11/08 13:26:48;;;;;;;18.13;3.83;;;;;25.10;100611.00;;;;5068174;28;20515;-74
2021/11/08 13:29:23;;;;;;;18.00;3.25;;;;;25.10;100618.00;;;;5067780;28;20059;-74
2021/11/08 13:31:53;;;;;;;12.80;2.70;;;;;25.40;100625.00;;;;5050085;28;20055;-73
2021/11/08 13:34:23;;;;;;;15.55;3.50;;;;;25.30;100605.00;;;;5067410;28;20052;-74
2021/11/08 13:36:54;;;;;;;12.93;3.40;;;;;25.40;100637.00;;;;5067761;28;20424;-74
2021/11/08 13:39:23;;;;;;;13.95;3.25;;;;;25.20;100628.00;;;;5067789;28;20290;-74
2021/11/08 13:41:53;;;;;;;15.63;3.75;;;;;25.30;100617.00;;;;5067988;28;20454;-74
2021/11/08 13:44:22;;;;;;;16.98;3.55;;;;;25.30;100615.00;;;;5067672;28;20094;-75
2021/11/08 13:46:54;;;;;;;10.50;3.00;;;;;25.10;100619.00;;;;5067984;28;20047;-75
2021/11/08 13:49:25;;;;;;;15.13;3.00;;;;;25.80;100626.00;;;;5066920;28;20040;-75
2021/11/08 13:51:57;;;;;;;;;;;;;26.80;100623.00;;;;5068752;28;20770;-75
2021/11/08 13:54:37;;;;;;;11.30;3.28;;;;;26.30;100622.00;;;;5067179;28;19920;-74
2021/11/08 13:57:18;;;;;;;16.67;3.35;;;;;26.00;100632.00;;;;5067690;28;20044;-75
2021/11/08 13:59:48;;;;;;;20.20;3.88;;;;;25.90;100612.00;;;;5067274;28;20430;-74
2021/11/08 14:02:20;;;;;;;20.75;4.50;;;;;26.00;100630.00;;;;5067191;28;20212;-74
2021/11/08 14:04:56;;;;;;;11.52;3.55;;;;;25.80;100619.00;;;;5048972;28;20472;-75
2021/11/08 14:07:27;;;;;;;15.45;3.35;;;;;25.30;100611.00;;;;5067065;28;20045;-74
2021/11/08 14:09:57;;;;;;;12.90;3.40;;;;;25.40;100626.00;;;;5066891;28;21209;-75